Time;durP1;ratioP1;P1;durP2;ratioP2;P2;SDS_P1;SDS_P2;PMS_P1;PMS_P2;Temp;Humidity;BMP_temperature;BMP_pressure;BME280_temperature;BME280_humidity;BME280_pressure;Samples;Min_cycle;Max_cycle;Signal;HPM_P1;HPM_P2
2023/08/10 00:01:32;;;;;;;7.10;2.60;;;17.40;99.90;;;;;;4844554;29;20049;-55
2023/08/10 00:03:59;;;;;;;5.55;2.70;;;17.40;99.90;;;;;;4844341;29;20049;-50
2023/08/10 00:06:25;;;;;;;3.67;2.70;;;17.30;99.90;;;;;;4844058;29;20050;-54
2023/08/10 00:08:52;;;;;;;4.28;2.95;;;17.30;99.90;;;;;;4844236;29;20042;-53
2023/08/10 00:11:19;;;;;;;5.00;2.90;;;17.30;99.90;;;;;;4844042;29;20390;-54
2023/08/10 00:13:46;;;;;;;4.40;2.90;;;17.30;99.90;;;;;;4844347;29;20049;-52
2023/08/10 00:16:12;;;;;;;5.35;3.40;;;17.20;99.90;;;;;;4843933;29;20046;-51
2023/08/10 00:18:39;;;;;;;5.78;3.30;;;17.20;99.90;;;;;;4858324;29;20439;-54
2023/08/10 00:21:06;;;;;;;6.65;3.00;;;17.20;99.90;;;;;;4858038;29;20056;-56
2023/08/10 00:23:33;;;;;;;6.00;2.90;;;17.10;99.90;;;;;;4844015;29;20138;-51
2023/08/10 00:25:59;;;;;;;4.32;2.85;;;17.00;99.90;;;;;;4843336;29;20106;-53
2023/08/10 00:28:26;;;;;;;5.97;2.85;;;17.10;99.90;;;;;;4858042;29;20046;-51
2023/08/10 00:30:53;;;;;;;4.93;2.50;;;17.00;99.90;;;;;;4858214;29;20141;-47
2023/08/10 00:33:22;;;;;;;4.25;2.90;;;17.00;99.90;;;;;;4843710;29;20034;-46
2023/08/10 00:36:01;;;;;;;3.35;2.58;;;17.00;99.90;;;;;;4843556;29;20114;-46
2023/08/10 00:38:28;;;;;;;4.97;2.78;;;17.00;99.90;;;;;;4843614;29;20057;-48
2023/08/10 00:40:54;;;;;;;5.90;3.10;;;17.00;99.90;;;;;;4858003;29;20061;-48
2023/08/10 00:43:21;;;;;;;4.22;2.88;;;16.90;99.90;;;;;;4857767;29;20050;-48
2023/08/10 00:45:48;;;;;;;4.03;3.28;;;16.90;99.90;;;;;;4843559;29;20521;-50
2023/08/10 00:48:15;;;;;;;3.40;2.80;;;16.90;99.90;;;;;;4843794;29;20111;-47
2023/08/10 00:50:42;;;;;;;3.75;3.30;;;16.90;99.90;;;;;;4857729;29;20149;-50
2023/08/10 00:53:09;;;;;;;4.85;3.00;;;16.90;99.90;;;;;;4857604;29;20050;-52
2023/08/10 00:55:35;;;;;;;4.15;3.10;;;16.90;99.90;;;;;;4843534;29;20046;-49
2023/08/10 00:58:02;;;;;;;5.55;2.83;;;16.80;99.90;;;;;;4857907;29;20045;-53
2023/08/10 01:00:29;;;;;;;4.07;2.80;;;16.80;99.90;;;;;;4857862;29;20482;-52
2023/08/10 01:02:56;;;;;;;5.32;2.90;;;16.80;99.90;;;;;;4857635;29;20064;-51
2023/08/10 01:05:24;;;;;;;4.90;2.90;;;16.70;99.90;;;;;;4843402;29;20045;-50
2023/08/10 01:07:51;;;;;;;4.35;3.00;;;16.70;99.90;;;;;;4843371;29;20157;-55
2023/08/10 01:10:18;;;;;;;3.88;3.00;;;16.70;99.90;;;;;;4842982;29;20065;-50
2023/08/10 01:12:45;;;;;;;3.58;3.20;;;16.70;99.90;;;;;;4843264;29;20394;-51
2023/08/10 01:15:11;;;;;;;4.28;3.17;;;16.70;99.90;;;;;;4842844;29;20458;-49
2023/08/10 01:17:38;;;;;;;3.65;2.85;;;16.70;99.90;;;;;;4843151;29;20439;-52
2023/08/10 01:20:05;;;;;;;3.92;3.10;;;16.70;99.90;;;;;;4843478;29;20504;-48
2023/08/10 01:22:32;;;;;;;4.80;3.05;;;16.70;99.90;;;;;;4843147;29;20347;-53
2023/08/10 01:25:00;;;;;;;5.90;3.00;;;16.60;99.90;;;;;;4856829;29;20054;-52
2023/08/10 01:27:26;;;;;;;6.45;3.65;;;16.60;99.90;;;;;;4843193;29;20061;-53
2023/08/10 01:29:54;;;;;;;5.32;3.15;;;16.60;99.90;;;;;;4843257;29;20558;-50
2023/08/10 01:32:21;;;;;;;3.92;3.10;;;16.50;99.90;;;;;;4842693;29;20037;-54
2023/08/10 01:34:50;;;;;;;4.10;3.03;;;16.50;99.90;;;;;;4843224;29;20050;-49
2023/08/10 01:37:17;;;;;;;4.30;3.35;;;16.50;99.90;;;;;;4842487;29;20068;-51
2023/08/10 01:39:44;;;;;;;5.90;3.95;;;16.50;99.90;;;;;;4841502;29;20069;-55
2023/08/10 01:42:11;;;;;;;4.30;3.30;;;16.40;99.90;;;;;;4856935;29;20554;-53
2023/08/10 01:44:38;;;;;;;6.15;3.40;;;16.40;99.90;;;;;;4842352;29;20053;-54
2023/08/10 01:47:04;;;;;;;4.32;3.20;;;16.40;99.90;;;;;;4856704;29;20058;-53
2023/08/10 01:49:31;;;;;;;3.58;3.03;;;16.30;99.90;;;;;;4856972;29;20422;-55
2023/08/10 01:51:58;;;;;;;5.20;3.35;;;16.30;99.90;;;;;;4842528;29;20132;-52
2023/08/10 01:54:25;;;;;;;3.88;3.30;;;16.30;99.90;;;;;;4857077;29;20141;-54
2023/08/10 01:56:52;;;;;;;4.45;3.17;;;16.30;99.90;;;;;;4842561;29;20439;-54
2023/08/10 01:59:19;;;;;;;4.60;3.17;;;16.30;99.90;;;;;;4842414;29;20052;-59
2023/08/10 02:01:46;;;;;;;4.45;3.20;;;16.20;99.90;;;;;;4856476;29;20053;-51
2023/08/10 02:04:13;;;;;;;5.07;3.13;;;16.20;99.90;;;;;;4842260;29;20045;-53
2023/08/10 02:06:40;;;;;;;8.32;3.70;;;16.20;99.90;;;;;;4856388;29;20498;-50
2023/08/10 02:09:07;;;;;;;4.43;3.13;;;16.20;99.90;;;;;;4842631;29;20054;-52
2023/08/10 02:11:34;;;;;;;3.88;2.85;;;16.10;99.90;;;;;;4842308;29;20050;-51
2023/08/10 02:14:01;;;;;;;4.20;3.10;;;16.10;99.90;;;;;;4842144;29;20046;-54
2023/08/10 02:16:27;;;;;;;3.58;3.17;;;16.10;99.90;;;;;;4856368;29;20595;-55
2023/08/10 02:18:54;;;;;;;4.63;3.00;;;16.10;99.90;;;;;;4842881;29;20053;-53
2023/08/10 02:21:23;;;;;;;4.47;2.75;;;16.10;99.90;;;;;;4842149;29;20099;-56
2023/08/10 02:23:50;;;;;;;3.53;2.97;;;16.10;99.90;;;;;;4842614;29;20050;-50
2023/08/10 02:26:17;;;;;;;4.22;3.08;;;16.00;99.90;;;;;;4855939;29;20042;-55
2023/08/10 02:28:44;;;;;;;3.72;2.75;;;16.00;99.90;;;;;;4840906;29;20064;-55
2023/08/10 02:31:11;;;;;;;4.05;3.00;;;15.90;99.90;;;;;;4856596;29;20088;-52
2023/08/10 02:33:38;;;;;;;3.17;2.65;;;15.90;99.90;;;;;;4842252;29;20490;-55
2023/08/10 02:36:06;;;;;;;4.53;3.05;;;15.90;99.90;;;;;;4841873;29;20073;-52
2023/08/10 02:38:33;;;;;;;5.95;3.30;;;15.90;99.90;;;;;;4842322;29;20054;-56
2023/08/10 02:41:01;;;;;;;4.35;2.90;;;15.90;99.90;;;;;;4842294;29;20075;-52
2023/08/10 02:43:28;;;;;;;4.78;3.13;;;15.80;99.90;;;;;;4842420;29;20125;-54
2023/08/10 02:45:55;;;;;;;4.57;3.00;;;15.80;99.90;;;;;;4842252;29;20049;-51
2023/08/10 02:48:21;;;;;;;5.28;3.22;;;15.80;99.90;;;;;;4842388;29;20046;-51
2023/08/10 02:50:48;;;;;;;3.50;2.90;;;15.80;99.90;;;;;;4859032;29;20060;-50
2023/08/10 02:53:15;;;;;;;4.13;2.90;;;15.80;99.90;;;;;;4844258;29;20038;-52
2023/08/10 02:55:42;;;;;;;5.15;3.60;;;15.80;99.90;;;;;;4859359;29;20106;-50
2023/08/10 02:58:10;;;;;;;5.50;3.03;;;15.80;99.90;;;;;;4845417;29;20041;-56
2023/08/10 03:00:36;;;;;;;5.32;2.83;;;15.80;99.90;;;;;;4845263;29;20429;-54
2023/08/10 03:03:04;;;;;;;4.00;3.00;;;15.70;99.90;;;;;;4860041;29;20390;-50
2023/08/10 03:05:31;;;;;;;4.95;3.05;;;15.70;99.90;;;;;;4859345;29;20122;-55
2023/08/10 03:07:57;;;;;;;4.10;2.85;;;15.70;99.90;;;;;;4844294;29;20475;-52
2023/08/10 03:10:24;;;;;;;4.47;3.03;;;15.70;99.90;;;;;;4845198;29;20046;-53
2023/08/10 03:12:51;;;;;;;4.45;2.70;;;15.70;99.90;;;;;;4859268;29;20110;-55
2023/08/10 03:15:18;;;;;;;4.43;2.92;;;15.70;99.90;;;;;;4859044;29;20077;-50
2023/08/10 03:17:45;;;;;;;10.13;3.08;;;15.60;99.90;;;;;;4845396;29;20045;-54
2023/08/10 03:20:16;;;;;;;4.95;2.95;;;15.60;99.90;;;;;;4859125;29;20049;-55
2023/08/10 03:22:44;;;;;;;3.65;2.70;;;15.60;99.90;;;;;;4859041;29;20058;-56
2023/08/10 03:25:12;;;;;;;6.60;2.78;;;15.60;99.90;;;;;;4859214;29;20058;-51
2023/08/10 03:27:39;;;;;;;3.63;2.72;;;15.60;99.90;;;;;;4858894;29;20057;-54
2023/08/10 03:30:09;;;;;;;5.53;2.60;;;15.60;99.90;;;;;;4843750;29;20050;-51
2023/08/10 03:32:37;;;;;;;4.93;2.78;;;15.60;99.90;;;;;;4843594;29;20058;-51
2023/08/10 03:35:05;;;;;;;4.60;3.20;;;15.50;99.90;;;;;;4844950;29;20450;-52
2023/08/10 03:37:31;;;;;;;3.92;2.70;;;15.50;99.90;;;;;;4844788;29;20042;-55
2023/08/10 03:39:58;;;;;;;3.67;2.58;;;15.50;99.90;;;;;;4859072;29;20049;-53
2023/08/10 03:42:25;;;;;;;3.83;2.85;;;15.50;99.90;;;;;;4859359;29;20398;-52
2023/08/10 03:44:55;;;;;;;4.53;2.58;;;15.50;99.90;;;;;;4859171;29;20050;-51
2023/08/10 03:47:22;;;;;;;3.38;2.63;;;15.50;99.90;;;;;;4843641;29;20054;-53
2023/08/10 03:49:49;;;;;;;3.72;2.67;;;15.50;99.90;;;;;;4844737;29;20045;-51
2023/08/10 03:52:16;;;;;;;3.10;2.80;;;15.50;99.90;;;;;;4844463;29;20050;-55
2023/08/10 03:54:42;;;;;;;5.22;2.85;;;15.50;99.90;;;;;;4858271;29;20057;-54
2023/08/10 03:57:09;;;;;;;6.45;3.00;;;15.40;99.90;;;;;;4844145;29;20056;-53
2023/08/10 03:59:36;;;;;;;4.93;3.00;;;15.40;99.90;;;;;;4844589;29;20124;-48
2023/08/10 04:02:03;;;;;;;8.02;2.80;;;15.40;99.90;;;;;;4857375;29;20042;-56
2023/08/10 04:04:30;;;;;;;4.10;2.70;;;15.40;99.90;;;;;;4858373;29;20089;-50
2023/08/10 04:06:56;;;;;;;5.57;2.80;;;15.30;99.90;;;;;;4858475;29;20065;-54
2023/08/10 04:09:23;;;;;;;5.18;2.78;;;15.20;99.90;;;;;;4858301;29;20565;-51
2023/08/10 04:11:50;;;;;;;7.60;2.95;;;15.20;99.90;;;;;;4844934;29;20106;-53
2023/08/10 04:14:17;;;;;;;4.18;2.55;;;15.20;99.90;;;;;;4844084;29;20042;-52
2023/08/10 04:16:44;;;;;;;3.28;2.58;;;15.20;99.90;;;;;;4857962;29;20058;-56
2023/08/10 04:19:11;;;;;;;4.95;2.80;;;15.20;99.90;;;;;;4858126;29;20417;-53
2023/08/10 04:21:39;;;;;;;6.40;2.72;;;15.10;99.90;;;;;;4844280;29;20093;-53
2023/08/10 04:24:05;;;;;;;4.65;2.65;;;15.10;99.90;;;;;;4844185;29;20045;-52
2023/08/10 04:26:32;;;;;;;6.10;2.70;;;15.10;99.90;;;;;;4843729;29;20056;-55
2023/08/10 04:28:59;;;;;;;3.72;2.60;;;15.10;99.90;;;;;;4844638;29;20046;-53
2023/08/10 04:31:25;;;;;;;4.15;2.83;;;15.10;99.90;;;;;;4843925;29;20054;-53
2023/08/10 04:33:52;;;;;;;3.15;2.40;;;15.10;99.90;;;;;;4843934;29;20038;-53
2023/08/10 04:36:19;;;;;;;3.50;2.60;;;15.10;99.90;;;;;;4843990;29;20065;-55
2023/08/10 04:38:46;;;;;;;4.35;2.92;;;15.10;99.90;;;;;;4843748;29;20065;-53
2023/08/10 04:41:13;;;;;;;9.60;3.25;;;15.10;99.90;;;;;;4844176;29;20085;-50
2023/08/10 04:43:40;;;;;;;4.10;2.72;;;15.10;99.90;;;;;;4844183;29;20058;-54
2023/08/10 04:46:07;;;;;;;3.80;2.80;;;15.10;99.90;;;;;;4843673;29;20053;-55
2023/08/10 04:48:33;;;;;;;4.05;2.88;;;15.10;99.90;;;;;;4843884;29;20443;-52
2023/08/10 04:51:00;;;;;;;4.68;2.70;;;15.10;99.90;;;;;;4843634;29;20050;-57
2023/08/10 04:53:27;;;;;;;4.68;2.60;;;15.10;99.90;;;;;;4844311;29;20046;-52
2023/08/10 04:55:54;;;;;;;2.90;2.38;;;15.10;99.90;;;;;;4843061;29;20061;-52
2023/08/10 04:58:21;;;;;;;3.70;2.70;;;15.10;99.90;;;;;;4843537;29;20117;-54
2023/08/10 05:00:47;;;;;;;3.97;2.50;;;15.10;99.90;;;;;;4843636;29;20153;-56
2023/08/10 05:03:14;;;;;;;3.35;2.63;;;15.10;99.90;;;;;;4843424;29;20125;-54
2023/08/10 05:05:41;;;;;;;3.28;2.50;;;15.20;99.90;;;;;;4843396;29;20387;-51
2023/08/10 05:08:08;;;;;;;5.28;2.80;;;15.20;99.90;;;;;;4843106;29;20061;-54
2023/08/10 05:10:35;;;;;;;3.72;2.80;;;15.20;99.90;;;;;;4843776;29;20474;-56
2023/08/10 05:13:01;;;;;;;3.95;2.75;;;15.20;99.90;;;;;;4842518;29;20056;-56
2023/08/10 05:15:28;;;;;;;5.22;3.08;;;15.20;99.90;;;;;;4842533;29;20069;-51
2023/08/10 05:17:55;;;;;;;3.60;2.65;;;15.30;99.90;;;;;;4842655;29;20474;-55
2023/08/10 05:20:22;;;;;;;4.80;2.95;;;15.30;99.90;;;;;;4843108;29;20447;-56
2023/08/10 05:22:49;;;;;;;4.38;2.85;;;15.40;99.90;;;;;;4843527;29;20042;-49
2023/08/10 05:25:15;;;;;;;3.83;2.80;;;15.40;99.90;;;;;;4842801;29;20414;-54
2023/08/10 05:27:45;;;;;;;3.17;2.45;;;15.50;99.90;;;;;;4843006;29;20053;-53
2023/08/10 05:30:11;;;;;;;5.45;2.70;;;15.50;99.90;;;;;;4842909;29;20499;-53
2023/08/10 05:32:39;;;;;;;3.17;2.60;;;15.60;99.90;;;;;;4843128;29;20046;-54
2023/08/10 05:35:06;;;;;;;3.92;2.50;;;15.80;99.90;;;;;;4842708;29;20053;-52
2023/08/10 05:37:33;;;;;;;4.15;2.42;;;15.90;99.90;;;;;;4857469;29;20148;-54
2023/08/10 05:40:00;;;;;;;4.05;2.38;;;16.00;99.90;;;;;;4842995;29;20069;-48
2023/08/10 05:42:27;;;;;;;4.28;2.67;;;16.10;99.90;;;;;;4842904;29;20142;-54
2023/08/10 05:44:54;;;;;;;6.65;2.53;;;16.30;99.90;;;;;;4843029;29;20073;-49
2023/08/10 05:47:21;;;;;;;3.85;2.50;;;16.40;99.90;;;;;;4857129;29;20069;-56
2023/08/10 05:49:48;;;;;;;3.88;2.65;;;16.50;99.90;;;;;;4843114;29;20050;-50
2023/08/10 05:52:14;;;;;;;4.28;2.70;;;16.50;99.90;;;;;;4843246;29;20041;-51
2023/08/10 05:54:41;;;;;;;3.90;2.22;;;16.50;99.90;;;;;;4842997;29;20053;-50
2023/08/10 05:57:08;;;;;;;5.25;2.78;;;16.50;99.90;;;;;;4842511;29;20056;-48
2023/08/10 05:59:35;;;;;;;3.72;2.60;;;16.50;99.90;;;;;;4842950;29;20045;-52
2023/08/10 06:02:02;;;;;;;3.95;2.53;;;16.50;99.90;;;;;;4842908;29;20042;-52
2023/08/10 06:04:29;;;;;;;4.53;2.60;;;16.50;99.90;;;;;;4843035;29;20443;-53
2023/08/10 06:06:56;;;;;;;3.22;2.10;;;16.50;99.90;;;;;;4842930;29;20050;-54
2023/08/10 06:09:23;;;;;;;4.13;2.50;;;16.50;99.90;;;;;;4842950;29;20544;-54
2023/08/10 06:11:49;;;;;;;3.33;2.13;;;16.60;99.90;;;;;;4842436;29;20089;-52
2023/08/10 06:14:16;;;;;;;4.65;2.38;;;16.60;99.90;;;;;;4842099;29;20046;-51
2023/08/10 06:16:43;;;;;;;3.95;2.72;;;16.60;99.90;;;;;;4842467;29;20048;-54
2023/08/10 06:19:10;;;;;;;3.38;2.30;;;16.60;99.90;;;;;;4842659;29;20045;-54
2023/08/10 06:21:37;;;;;;;4.53;2.67;;;16.60;99.90;;;;;;4842520;29;20042;-55
2023/08/10 06:24:06;;;;;;;6.18;2.90;;;16.70;99.90;;;;;;4843466;29;20045;-51
2023/08/10 06:26:34;;;;;;;3.20;2.63;;;16.70;99.90;;;;;;4860104;29;20087;-51
2023/08/10 06:29:02;;;;;;;4.00;2.95;;;16.80;99.90;;;;;;4846106;29;20054;-50
2023/08/10 06:31:29;;;;;;;3.20;2.80;;;16.80;99.90;;;;;;4846565;29;20057;-56
2023/08/10 06:33:56;;;;;;;5.75;2.75;;;16.90;99.90;;;;;;4846091;29;20046;-54
2023/08/10 06:36:23;;;;;;;5.00;2.70;;;16.90;99.90;;;;;;4845851;29;20057;-55
2023/08/10 06:38:50;;;;;;;4.32;2.50;;;17.00;99.90;;;;;;4860103;29;20399;-48
2023/08/10 06:41:17;;;;;;;7.72;3.10;;;17.00;99.90;;;;;;4845693;29;20108;-49
2023/08/10 06:43:43;;;;;;;3.28;2.33;;;17.10;99.90;;;;;;4859975;29;20386;-52
2023/08/10 06:46:10;;;;;;;3.22;2.50;;;17.20;99.90;;;;;;4845468;29;20486;-53
2023/08/10 06:48:37;;;;;;;3.60;2.10;;;17.30;99.90;;;;;;4845678;29;20045;-52
2023/08/10 06:51:04;;;;;;;4.22;2.05;;;17.30;99.90;;;;;;4845601;29;20046;-53
2023/08/10 06:53:33;;;;;;;4.50;1.92;;;17.40;99.90;;;;;;4845536;29;20046;-54
2023/08/10 06:56:00;;;;;;;3.22;1.83;;;17.50;99.90;;;;;;4859609;29;20058;-51
2023/08/10 06:58:26;;;;;;;2.70;2.00;;;17.50;99.90;;;;;;4845568;29;20042;-50
2023/08/10 07:00:56;;;;;;;3.78;2.10;;;17.60;99.90;;;;;;4845261;29;20042;-52
2023/08/10 07:03:23;;;;;;;5.82;1.80;;;17.70;99.90;;;;;;4845475;29;20078;-50
2023/08/10 07:05:50;;;;;;;3.55;1.80;;;17.80;99.90;;;;;;4845590;29;20048;-50
2023/08/10 07:08:19;;;;;;;5.70;1.92;;;17.90;99.90;;;;;;4845826;29;20050;-56
2023/08/10 07:10:48;;;;;;;11.48;2.42;;;18.00;99.90;;;;;;4859655;29;20052;-53
2023/08/10 07:13:14;;;;;;;3.20;1.60;;;18.10;99.90;;;;;;4845723;29;20531;-56
2023/08/10 07:15:42;;;;;;;6.35;2.03;;;18.10;99.90;;;;;;4845763;29;20042;-55
2023/08/10 07:18:09;;;;;;;4.32;1.52;;;18.30;99.90;;;;;;4845308;29;20045;-53
2023/08/10 07:20:36;;;;;;;6.57;1.85;;;18.30;99.90;;;;;;4845158;29;20502;-56
2023/08/10 07:23:03;;;;;;;5.88;1.65;;;18.30;99.90;;;;;;4849447;29;20045;-54
2023/08/10 07:25:30;;;;;;;5.20;1.60;;;18.40;99.90;;;;;;4856401;29;20034;-56
2023/08/10 07:27:57;;;;;;;4.82;1.58;;;18.50;99.90;;;;;;4826971;29;20054;-54
2023/08/10 07:30:24;;;;;;;4.40;1.85;;;18.50;99.90;;;;;;4827094;29;20065;-55
2023/08/10 07:32:51;;;;;;;3.85;1.60;;;18.60;99.90;;;;;;4826646;29;20058;-55
2023/08/10 07:35:19;;;;;;;4.03;1.45;;;18.70;99.90;;;;;;4826107;29;20444;-57
2023/08/10 07:37:45;;;;;;;2.97;1.65;;;18.80;99.90;;;;;;4841729;29;20056;-53
2023/08/10 07:40:12;;;;;;;4.25;1.52;;;18.90;99.90;;;;;;4844454;29;20042;-56
2023/08/10 07:42:39;;;;;;;4.30;2.65;;;18.90;99.90;;;;;;4844365;29;20062;-52
2023/08/10 07:45:09;;;;;;;3.78;1.70;;;19.00;99.90;;;;;;4844739;29;20046;-56
2023/08/10 07:47:36;;;;;;;5.40;1.63;;;19.10;99.90;;;;;;4844725;29;20094;-54
2023/08/10 07:50:03;;;;;;;3.30;1.52;;;19.10;99.90;;;;;;4844640;29;20406;-54
2023/08/10 07:52:30;;;;;;;7.38;1.58;;;19.10;99.90;;;;;;4844167;29;20050;-55
2023/08/10 07:54:56;;;;;;;3.72;1.83;;;19.20;99.90;;;;;;4858585;29;20054;-53
2023/08/10 07:57:23;;;;;;;5.10;1.58;;;19.20;99.90;;;;;;4843829;29;20086;-54
2023/08/10 07:59:50;;;;;;;4.30;1.40;;;19.30;99.90;;;;;;4843446;29;20045;-56
2023/08/10 08:02:17;;;;;;;3.75;1.52;;;19.30;99.90;;;;;;4844610;29;20450;-55
2023/08/10 08:04:43;;;;;;;6.97;1.70;;;19.40;99.90;;;;;;4844420;29;20578;-55
2023/08/10 08:07:10;;;;;;;2.50;1.48;;;19.40;99.90;;;;;;4844633;29;20074;-55
2023/08/10 08:09:37;;;;;;;5.32;1.27;;;19.40;99.90;;;;;;4844098;29;20053;-56
2023/08/10 08:12:04;;;;;;;8.20;1.50;;;19.50;99.90;;;;;;4844111;29;20133;-55
2023/08/10 08:14:31;;;;;;;4.82;1.50;;;19.50;99.90;;;;;;4844470;29;20050;-54
2023/08/10 08:16:57;;;;;;;3.90;1.42;;;19.60;99.90;;;;;;4857252;29;20054;-53
2023/08/10 08:19:24;;;;;;;3.80;1.85;;;19.60;99.90;;;;;;4843476;29;20050;-57
2023/08/10 08:21:51;;;;;;;5.65;1.70;;;19.70;99.90;;;;;;4843626;29;20038;-53
2023/08/10 08:24:18;;;;;;;2.75;1.40;;;19.80;99.90;;;;;;4844135;29;20046;-54
2023/08/10 08:26:45;;;;;;;3.20;1.65;;;19.80;99.90;;;;;;4843221;29;20054;-53
2023/08/10 08:29:11;;;;;;;2.63;1.50;;;19.90;99.90;;;;;;4844364;29;20050;-56
2023/08/10 08:31:38;;;;;;;2.58;1.40;;;19.90;99.90;;;;;;4837187;29;20050;-56
2023/08/10 08:34:05;;;;;;;10.02;2.20;;;20.00;99.90;;;;;;4844745;29;20474;-52
2023/08/10 08:36:32;;;;;;;4.95;1.48;;;20.00;99.90;;;;;;4843120;29;20069;-56
2023/08/10 08:38:58;;;;;;;5.88;1.83;;;20.10;99.90;;;;;;4843592;29;20402;-54
2023/08/10 08:41:25;;;;;;;2.47;1.40;;;20.10;99.90;;;;;;4843498;29;20129;-54
2023/08/10 08:43:52;;;;;;;4.38;1.90;;;20.20;99.90;;;;;;4837968;29;20062;-55
2023/08/10 08:46:19;;;;;;;3.65;1.55;;;20.30;99.90;;;;;;4843088;29;20054;-56
2023/08/10 08:48:46;;;;;;;3.25;1.40;;;20.30;99.90;;;;;;4842992;29;20042;-56
2023/08/10 08:51:12;;;;;;;4.40;1.70;;;20.30;99.90;;;;;;4843388;29;20046;-54
2023/08/10 08:53:39;;;;;;;9.55;1.40;;;20.40;99.90;;;;;;4842810;29;20042;-52
2023/08/10 08:56:06;;;;;;;2.38;1.27;;;20.50;99.90;;;;;;4843437;29;20057;-52
2023/08/10 08:58:33;;;;;;;2.90;1.70;;;20.60;99.90;;;;;;4842724;29;20050;-57
2023/08/10 09:00:59;;;;;;;3.22;1.40;;;20.60;99.90;;;;;;4843678;29;20054;-57
2023/08/10 09:03:26;;;;;;;3.38;1.40;;;20.70;99.90;;;;;;4843202;29;20046;-53
2023/08/10 09:05:53;;;;;;;42.90;4.72;;;20.80;99.90;;;;;;4842569;29;20053;-54
2023/08/10 09:08:20;;;;;;;3.97;1.50;;;20.80;99.90;;;;;;4848127;29;20482;-57
2023/08/10 09:10:47;;;;;;;6.18;1.70;;;20.90;99.90;;;;;;4841945;29;20064;-56
2023/08/10 09:13:13;;;;;;;5.47;1.70;;;21.00;99.90;;;;;;4842803;29;20049;-57
2023/08/10 09:15:40;;;;;;;5.32;2.00;;;21.10;99.90;;;;;;4842347;29;20050;-56
2023/08/10 09:18:07;;;;;;;4.05;1.70;;;21.20;99.90;;;;;;4842184;29;20077;-53
2023/08/10 09:20:34;;;;;;;5.65;1.60;;;21.30;99.90;;;;;;4842311;29;20049;-55
2023/08/10 09:23:01;;;;;;;3.97;1.90;;;21.40;99.90;;;;;;4842148;29;20502;-54
2023/08/10 09:25:27;;;;;;;2.42;1.50;;;21.50;99.90;;;;;;4843894;29;20046;-55
2023/08/10 09:27:54;;;;;;;5.10;1.65;;;21.50;99.90;;;;;;4856041;29;20038;-54
2023/08/10 09:30:21;;;;;;;4.22;1.40;;;21.60;99.90;;;;;;4842060;29;20407;-59
2023/08/10 09:32:48;;;;;;;4.63;2.08;;;21.70;99.90;;;;;;4842762;29;20045;-55
2023/08/10 09:35:15;;;;;;;4.05;1.70;;;21.80;99.90;;;;;;4841604;29;20154;-57
2023/08/10 09:37:41;;;;;;;7.28;2.00;;;21.80;99.90;;;;;;4842797;29;20124;-57
2023/08/10 09:40:10;;;;;;;8.32;2.13;;;21.90;99.90;;;;;;4842276;29;20046;-54
2023/08/10 09:42:37;;;;;;;8.63;3.33;;;22.00;99.90;;;;;;4842195;29;20521;-54
2023/08/10 09:45:04;;;;;;;12.85;4.97;;;22.00;99.90;;;;;;4842715;29;20513;-57
2023/08/10 09:47:30;;;;;;;7.45;3.75;;;22.10;99.90;;;;;;4842334;29;20468;-55
2023/08/10 09:49:58;;;;;;;4.68;2.42;;;22.10;99.90;;;;;;4841477;29;20057;-55
2023/08/10 09:52:25;;;;;;;4.35;2.28;;;22.20;99.90;;;;;;4842148;29;20516;-55
2023/08/10 09:54:51;;;;;;;4.07;2.53;;;22.20;99.90;;;;;;4843119;29;20130;-56
2023/08/10 09:57:18;;;;;;;6.18;2.65;;;22.20;99.90;;;;;;4844898;29;20053;-57
2023/08/10 09:59:45;;;;;;;8.20;2.50;;;22.30;99.90;;;;;;4841326;29;20054;-54
2023/08/10 10:02:12;;;;;;;6.68;2.10;;;22.30;99.90;;;;;;4842260;29;20078;-57
2023/08/10 10:04:39;;;;;;;3.13;1.98;;;22.50;99.90;;;;;;4841957;29;20060;-56
2023/08/10 10:07:06;;;;;;;5.82;2.47;;;22.50;99.90;;;;;;4841173;29;20046;-55
2023/08/10 10:09:33;;;;;;;6.55;2.10;;;22.50;99.90;;;;;;4841592;29;20158;-56
2023/08/10 10:11:59;;;;;;;5.07;1.77;;;22.50;99.90;;;;;;4841740;29;20451;-57
2023/08/10 10:14:26;;;;;;;3.83;1.90;;;22.60;99.90;;;;;;4842090;29;20490;-53
2023/08/10 10:16:53;;;;;;;3.78;2.00;;;22.60;99.90;;;;;;4841698;29;20402;-56
2023/08/10 10:19:20;;;;;;;5.10;1.83;;;22.60;99.90;;;;;;4837412;29;20066;-52
2023/08/10 10:21:47;;;;;;;4.50;2.03;;;22.60;99.90;;;;;;4841797;29;20046;-56
2023/08/10 10:24:14;;;;;;;54.05;11.00;;;22.60;99.90;;;;;;4841162;29;20054;-53
2023/08/10 10:26:41;;;;;;;8.25;2.67;;;22.70;99.90;;;;;;4841774;29;20038;-57
2023/08/10 10:29:11;;;;;;;6.80;2.00;;;22.70;99.90;;;;;;4841210;29;20052;-51
2023/08/10 10:31:38;;;;;;;5.68;2.70;;;22.80;99.90;;;;;;4841818;29;20061;-52
2023/08/10 10:34:05;;;;;;;6.95;1.98;;;22.90;99.90;;;;;;4841619;29;20038;-53
2023/08/10 10:36:32;;;;;;;6.13;2.15;;;23.00;99.90;;;;;;4841242;29;20057;-55
2023/08/10 10:38:59;;;;;;;7.15;2.67;;;23.10;99.90;;;;;;4840953;29;20054;-54
2023/08/10 10:41:26;;;;;;;17.77;2.80;;;23.20;99.90;;;;;;4841661;29;20046;-53
2023/08/10 10:43:52;;;;;;;11.05;2.67;;;23.40;99.90;;;;;;4841457;29;20455;-54
2023/08/10 10:46:19;;;;;;;7.03;2.20;;;23.70;99.90;;;;;;4855780;29;20089;-54
2023/08/10 10:48:46;;;;;;;8.90;3.53;;;24.00;99.40;;;;;;4855352;29;20046;-49
2023/08/10 10:51:13;;;;;;;12.55;4.03;;;24.30;99.00;;;;;;4840880;29;20050;-56
2023/08/10 10:53:40;;;;;;;5.07;2.20;;;24.50;98.70;;;;;;4842053;29;20053;-54
2023/08/10 10:56:07;;;;;;;6.65;2.10;;;24.60;98.70;;;;;;4841535;29;20069;-53
2023/08/10 10:58:34;;;;;;;4.28;2.30;;;24.70;98.50;;;;;;4841994;29;20042;-51
2023/08/10 11:01:00;;;;;;;6.38;2.10;;;24.90;98.20;;;;;;4855750;29;20054;-50
2023/08/10 11:03:28;;;;;;;6.30;2.28;;;24.90;98.20;;;;;;4842188;29;20054;-52
2023/08/10 11:05:55;;;;;;;8.02;2.88;;;25.00;98.00;;;;;;4841855;29;20418;-54
2023/08/10 11:08:22;;;;;;;6.20;2.50;;;25.00;98.30;;;;;;4842141;29;20054;-54
2023/08/10 11:10:51;;;;;;;4.78;2.25;;;25.10;97.80;;;;;;4843718;29;20499;-56
2023/08/10 11:13:18;;;;;;;24.40;3.58;;;25.20;98.30;;;;;;4845402;29;20086;-55
2023/08/10 11:15:45;;;;;;;8.95;2.40;;;25.20;98.40;;;;;;4845339;29;20041;-55
2023/08/10 11:18:12;;;;;;;12.90;2.60;;;25.10;98.10;;;;;;4845400;29;20084;-54
2023/08/10 11:20:39;;;;;;;52.47;4.28;;;25.10;98.00;;;;;;4844898;29;20046;-52
2023/08/10 11:23:06;;;;;;;6.63;2.40;;;25.10;98.30;;;;;;4845072;29;20046;-57
2023/08/10 11:25:33;;;;;;;7.53;2.20;;;25.10;97.80;;;;;;4845082;29;20046;-53
2023/08/10 11:27:59;;;;;;;4.70;2.20;;;25.00;97.90;;;;;;4845085;29;20050;-54
2023/08/10 11:30:26;;;;;;;5.85;2.22;;;24.90;97.80;;;;;;4839284;29;20053;-56
2023/08/10 11:32:53;;;;;;;4.85;1.70;;;25.00;97.80;;;;;;4838973;29;20133;-56
2023/08/10 11:35:20;;;;;;;4.50;1.85;;;25.00;97.40;;;;;;4844456;29;20046;-57
2023/08/10 11:37:51;;;;;;;5.43;1.90;;;25.10;97.70;;;;;;4844531;29;20050;-57
2023/08/10 11:40:18;;;;;;;7.60;2.03;;;25.20;97.60;;;;;;4844014;29;20053;-58
2023/08/10 11:42:47;;;;;;;21.95;2.75;;;25.30;97.40;;;;;;4844759;29;20698;-55
2023/08/10 11:45:18;;;;;;;3.63;1.85;;;25.20;97.40;;;;;;4843740;29;20046;-57
2023/08/10 11:47:45;;;;;;;9.63;1.95;;;25.20;97.10;;;;;;4844186;29;20054;-55
2023/08/10 11:50:32;;;;;;;3.10;1.77;;;25.30;97.20;;;;;;4845017;29;20124;-57
2023/08/10 11:52:59;;;;;;;4.00;1.90;;;25.20;97.00;;;;;;4844994;29;20506;-55
2023/08/10 11:55:26;;;;;;;3.85;1.95;;;25.20;97.00;;;;;;4844819;29;20061;-55
2023/08/10 11:57:53;;;;;;;5.25;2.10;;;25.10;97.00;;;;;;4845044;29;20049;-51
2023/08/10 12:00:22;;;;;;;3.20;1.42;;;25.00;96.80;;;;;;4844912;29;20072;-56
2023/08/10 12:02:50;;;;;;;4.20;1.85;;;24.90;96.80;;;;;;4845156;29;20054;-58
2023/08/10 12:05:16;;;;;;;3.10;1.67;;;24.80;96.80;;;;;;4844860;29;20060;-56
2023/08/10 12:07:43;;;;;;;4.53;1.75;;;24.70;96.60;;;;;;4845014;29;20493;-56
2023/08/10 12:10:10;;;;;;;6.60;1.90;;;24.60;97.20;;;;;;4844759;29;20068;-55
2023/08/10 12:12:37;;;;;;;4.35;2.00;;;24.60;97.20;;;;;;4844908;29;20050;-57
2023/08/10 12:15:03;;;;;;;3.10;1.92;;;24.60;97.30;;;;;;4844704;29;20045;-58
2023/08/10 12:17:30;;;;;;;5.55;1.95;;;24.70;97.30;;;;;;4844520;29;20478;-53
2023/08/10 12:19:57;;;;;;;3.60;1.80;;;24.60;96.80;;;;;;4844721;29;20462;-55
2023/08/10 12:22:25;;;;;;;2.70;1.60;;;24.70;96.80;;;;;;4844021;29;20052;-53
2023/08/10 12:24:52;;;;;;;4.00;1.80;;;24.70;97.20;;;;;;4844685;29;20052;-58
2023/08/10 12:27:19;;;;;;;3.70;1.95;;;24.80;96.70;;;;;;4844357;29;20049;-55
2023/08/10 12:29:45;;;;;;;3.55;2.03;;;24.90;96.60;;;;;;4844515;29;20075;-56
2023/08/10 12:32:12;;;;;;;3.03;1.75;;;24.90;96.40;;;;;;4844467;29;20053;-56
2023/08/10 12:34:39;;;;;;;5.20;2.08;;;24.90;97.00;;;;;;4844440;29;20046;-55
2023/08/10 12:37:06;;;;;;;5.47;2.45;;;24.90;96.60;;;;;;4844039;29;20045;-58
2023/08/10 12:39:33;;;;;;;5.10;1.92;;;24.90;96.40;;;;;;4844274;29;20125;-56
2023/08/10 12:42:02;;;;;;;4.75;1.90;;;24.90;96.50;;;;;;4842736;29;20046;-57
2023/08/10 12:44:30;;;;;;;5.38;2.10;;;24.90;96.90;;;;;;4844305;29;20363;-57